sensor_id;sensor_type;location;lat;lon;timestamp;pressure;altitude;pressure_sealevel;temperature;humidity
11440;BME280;5776;51.814;4.510;2024-03-02T00:00:19;99827.47;;;7.01;100.00
11440;BME280;5776;51.814;4.510;2024-03-02T00:02:48;99818.88;;;6.99;100.00
11440;BME280;5776;51.814;4.510;2024-03-02T00:05:19;99825.38;;;6.98;100.00
11440;BME280;5776;51.814;4.510;2024-03-02T00:07:52;99827.03;;;6.94;100.00
11440;BME280;5776;51.814;4.510;2024-03-02T00:10:22;99842.16;;;6.95;100.00
11440;BME280;5776;51.814;4.510;2024-03-02T00:12:58;99852.94;;;6.95;100.00
11440;BME280;5776;51.814;4.510;2024-03-02T00:15:31;99847.03;;;6.93;100.00
11440;BME280;5776;51.814;4.510;2024-03-02T00:18:01;99841.91;;;6.91;100.00
11440;BME280;5776;51.814;4.510;2024-03-02T00:20:27;99848.09;;;6.92;100.00
11440;BME280;5776;51.814;4.510;2024-03-02T00:23:14;99842.22;;;6.90;100.00
11440;BME280;5776;51.814;4.510;2024-03-02T00:25:48;99840.59;;;6.89;100.00
11440;BME280;5776;51.814;4.510;2024-03-02T00:33:34;99841.09;;;6.91;100.00
11440;BME280;5776;51.814;4.510;2024-03-02T00:36:04;99834.13;;;6.90;100.00
11440;BME280;5776;51.814;4.510;2024-03-02T00:38:31;99818.72;;;6.90;100.00
11440;BME280;5776;51.814;4.510;2024-03-02T00:41:05;99829.25;;;6.87;100.00
11440;BME280;5776;51.814;4.510;2024-03-02T00:46:11;99839.56;;;6.85;100.00
11440;BME280;5776;51.814;4.510;2024-03-02T00:48:38;99840.06;;;6.87;100.00
11440;BME280;5776;51.814;4.510;2024-03-02T00:51:04;99839.25;;;6.86;100.00
11440;BME280;5776;51.814;4.510;2024-03-02T00:53:31;99842.28;;;6.85;100.00
11440;BME280;5776;51.814;4.510;2024-03-02T00:55:59;99836.88;;;6.85;100.00
11440;BME280;5776;51.814;4.510;2024-03-02T00:58:26;99842.28;;;6.85;100.00
11440;BME280;5776;51.814;4.510;2024-03-02T01:00:52;99840.44;;;6.80;100.00
11440;BME280;5776;51.814;4.510;2024-03-02T01:03:18;99843.41;;;6.79;100.00
11440;BME280;5776;51.814;4.510;2024-03-02T01:05:48;99831.00;;;6.78;100.00
11440;BME280;5776;51.814;4.510;2024-03-02T01:08:13;99821.81;;;6.79;100.00
11440;BME280;5776;51.814;4.510;2024-03-02T01:10:40;99831.22;;;6.81;100.00
11440;BME280;5776;51.814;4.510;2024-03-02T01:13:06;99835.81;;;6.81;100.00
11440;BME280;5776;51.814;4.510;2024-03-02T01:15:33;99848.78;;;6.79;100.00
11440;BME280;5776;51.814;4.510;2024-03-02T01:17:59;99843.97;;;6.76;100.00
11440;BME280;5776;51.814;4.510;2024-03-02T01:20:25;99844.78;;;6.76;100.00
11440;BME280;5776;51.814;4.510;2024-03-02T01:22:51;99866.38;;;6.76;100.00
11440;BME280;5776;51.814;4.510;2024-03-02T01:25:16;99880.16;;;6.75;100.00
11440;BME280;5776;51.814;4.510;2024-03-02T01:27:44;99880.16;;;6.75;100.00
11440;BME280;5776;51.814;4.510;2024-03-02T01:30:10;99857.53;;;6.70;100.00
11440;BME280;5776;51.814;4.510;2024-03-02T01:32:40;99854.53;;;6.72;100.00
11440;BME280;5776;51.814;4.510;2024-03-02T01:35:06;99865.31;;;6.72;100.00
11440;BME280;5776;51.814;4.510;2024-03-02T01:37:32;99847.25;;;6.73;100.00
11440;BME280;5776;51.814;4.510;2024-03-02T01:39:58;99854.03;;;6.70;100.00
11440;BME280;5776;51.814;4.510;2024-03-02T01:42:24;99861.28;;;6.69;100.00
11440;BME280;5776;51.814;4.510;2024-03-02T01:44:51;99866.69;;;6.69;100.00
11440;BME280;5776;51.814;4.510;2024-03-02T01:47:17;99878.06;;;6.66;100.00
11440;BME280;5776;51.814;4.510;2024-03-02T01:49:43;99866.19;;;6.67;100.00
11440;BME280;5776;51.814;4.510;2024-03-02T01:52:08;99870.78;;;6.67;100.00
11440;BME280;5776;51.814;4.510;2024-03-02T01:54:34;99861.06;;;6.66;100.00
11440;BME280;5776;51.814;4.510;2024-03-02T01:57:00;99868.91;;;6.67;100.00
11440;BME280;5776;51.814;4.510;2024-03-02T01:59:28;99858.66;;;6.64;100.00
11440;BME280;5776;51.814;4.510;2024-03-02T02:01:53;99861.06;;;6.66;100.00
11440;BME280;5776;51.814;4.510;2024-03-02T02:04:19;99865.16;;;6.63;100.00
11440;BME280;5776;51.814;4.510;2024-03-02T02:06:48;99867.31;;;6.61;100.00
11440;BME280;5776;51.814;4.510;2024-03-02T02:09:14;99867.84;;;6.63;100.00
11440;BME280;5776;51.814;4.510;2024-03-02T02:11:40;99873.25;;;6.63;100.00
11440;BME280;5776;51.814;4.510;2024-03-02T02:14:06;99877.53;;;6.64;100.00
11440;BME280;5776;51.814;4.510;2024-03-02T02:16:32;99878.06;;;6.66;100.00
11440;BME280;5776;51.814;4.510;2024-03-02T02:18:58;99880.81;;;6.61;100.00
11440;BME280;5776;51.814;4.510;2024-03-02T02:21:24;99884.63;;;6.60;100.00
11440;BME280;5776;51.814;4.510;2024-03-02T02:23:50;99887.00;;;6.62;100.00
11440;BME280;5776;51.814;4.510;2024-03-02T02:26:16;99878.41;;;6.60;100.00
11440;BME280;5776;51.814;4.510;2024-03-02T02:28:42;99872.72;;;6.61;100.00
11440;BME280;5776;51.814;4.510;2024-03-02T02:31:13;99874.63;;;6.61;100.00
11440;BME280;5776;51.814;4.510;2024-03-02T02:33:42;99869.50;;;6.59;100.00
11440;BME280;5776;51.814;4.510;2024-03-02T02:36:08;99874.88;;;6.59;100.00
11440;BME280;5776;51.814;4.510;2024-03-02T02:38:39;99873.56;;;6.57;100.00
11440;BME280;5776;51.814;4.510;2024-03-02T02:41:07;99875.19;;;6.58;100.00
11440;BME280;5776;51.814;4.510;2024-03-02T02:43:33;99885.19;;;6.57;100.00
11440;BME280;5776;51.814;4.510;2024-03-02T02:45:58;99877.63;;;6.54;100.00
11440;BME280;5776;51.814;4.510;2024-03-02T02:48:23;99870.38;;;6.55;100.00
11440;BME280;5776;51.814;4.510;2024-03-02T02:50:50;99859.59;;;6.55;100.00
11440;BME280;5776;51.814;4.510;2024-03-02T02:53:15;99868.75;;;6.54;100.00
11440;BME280;5776;51.814;4.510;2024-03-02T02:55:41;99863.66;;;6.52;100.00
11440;BME280;5776;51.814;4.510;2024-03-02T02:58:09;99873.06;;;6.55;100.00
11440;BME280;5776;51.814;4.510;2024-03-02T03:00:35;99869.53;;;6.54;100.00
11440;BME280;5776;51.814;4.510;2024-03-02T03:03:02;99865.53;;;6.52;100.00
11440;BME280;5776;51.814;4.510;2024-03-02T03:05:28;99868.22;;;6.52;100.00
11440;BME280;5776;51.814;4.510;2024-03-02T03:07:54;99871.75;;;6.52;100.00
11440;BME280;5776;51.814;4.510;2024-03-02T03:10:20;99872.25;;;6.54;100.00
11440;BME280;5776;51.814;4.510;2024-03-02T03:12:47;99875.50;;;6.51;100.00
11440;BME280;5776;51.814;4.510;2024-03-02T03:15:15;99888.22;;;6.51;100.00
11440;BME280;5776;51.814;4.510;2024-03-02T03:17:42;99886.31;;;6.51;100.00
11440;BME280;5776;51.814;4.510;2024-03-02T03:20:08;99882.53;;;6.52;100.00
11440;BME280;5776;51.814;4.510;2024-03-02T03:22:38;99877.69;;;6.49;100.00
11440;BME280;5776;51.814;4.510;2024-03-02T03:25:05;99884.72;;;6.50;100.00
11440;BME280;5776;51.814;4.510;2024-03-02T03:27:31;99884.72;;;6.50;100.00
11440;BME280;5776;51.814;4.510;2024-03-02T03:29:57;99892.28;;;6.48;100.00
11440;BME280;5776;51.814;4.510;2024-03-02T03:32:24;99890.66;;;6.47;100.00
11440;BME280;5776;51.814;4.510;2024-03-02T03:34:50;99892.03;;;6.44;100.00
11440;BME280;5776;51.814;4.510;2024-03-02T03:37:16;99898.25;;;6.45;100.00
11440;BME280;5776;51.814;4.510;2024-03-02T03:39:42;99901.22;;;6.43;100.00
11440;BME280;5776;51.814;4.510;2024-03-02T03:42:08;99901.22;;;6.43;100.00
11440;BME280;5776;51.814;4.510;2024-03-02T03:44:34;99889.91;;;6.41;100.00
11440;BME280;5776;51.814;4.510;2024-03-02T03:47:00;99891.78;;;6.41;100.00
11440;BME280;5776;51.814;4.510;2024-03-02T03:49:29;99886.41;;;6.41;100.00
11440;BME280;5776;51.814;4.510;2024-03-02T03:51:55;99886.97;;;6.38;100.00
11440;BME280;5776;51.814;4.510;2024-03-02T03:54:20;99891.78;;;6.41;100.00
11440;BME280;5776;51.814;4.510;2024-03-02T03:56:46;99888.56;;;6.39;100.00
11440;BME280;5776;51.814;4.510;2024-03-02T03:59:12;99890.75;;;6.37;100.00
11440;BME280;5776;51.814;4.510;2024-03-02T04:01:38;99893.16;;;6.38;100.00
11440;BME280;5776;51.814;4.510;2024-03-02T04:04:04;99896.72;;;6.34;100.00
11440;BME280;5776;51.814;4.510;2024-03-02T04:06:29;99896.47;;;6.30;100.00
11440;BME280;5776;51.814;4.510;2024-03-02T04:08:55;99902.66;;;6.31;100.00
11440;BME280;5776;51.814;4.510;2024-03-02T04:11:21;99896.47;;;6.30;100.00
11440;BME280;5776;51.814;4.510;2024-03-02T04:13:47;99899.44;;;6.28;100.00
11440;BME280;5776;51.814;4.510;2024-03-02T04:16:13;99898.66;;;6.28;100.00
11440;BME280;5776;51.814;4.510;2024-03-02T04:18:39;99907.25;;;6.30;100.00
11440;BME280;5776;51.814;4.510;2024-03-02T04:21:05;99902.66;;;6.31;100.00
11440;BME280;5776;51.814;4.510;2024-03-02T04:23:31;99904.56;;;6.30;100.00
11440;BME280;5776;51.814;4.510;2024-03-02T04:25:57;99903.25;;;6.27;100.00
11440;BME280;5776;51.814;4.510;2024-03-02T04:28:23;99901.06;;;6.30;100.00
11440;BME280;5776;51.814;4.510;2024-03-02T04:30:50;99895.16;;;6.27;100.00
11440;BME280;5776;51.814;4.510;2024-03-02T04:33:18;99893.03;;;6.24;100.00
11440;BME280;5776;51.814;4.510;2024-03-02T04:35:44;99898.13;;;6.26;100.00
11440;BME280;5776;51.814;4.510;2024-03-02T04:38:10;99896.53;;;6.25;100.00
11440;BME280;5776;51.814;4.510;2024-03-02T04:40:36;99898.41;;;6.24;100.00
11440;BME280;5776;51.814;4.510;2024-03-02T04:43:01;99904.88;;;6.23;100.00
11440;BME280;5776;51.814;4.510;2024-03-02T04:45:28;99907.84;;;6.22;100.00
11440;BME280;5776;51.814;4.510;2024-03-02T04:47:54;99909.75;;;6.21;100.00
11440;BME280;5776;51.814;4.510;2024-03-02T04:50:20;99914.34;;;6.21;100.00
11440;BME280;5776;51.814;4.510;2024-03-02T04:52:46;99917.31;;;6.19;100.00
11440;BME280;5776;51.814;4.510;2024-03-02T04:55:12;99919.50;;;6.17;100.00
11440;BME280;5776;51.814;4.510;2024-03-02T04:57:41;99919.75;;;6.16;100.00
11440;BME280;5776;51.814;4.510;2024-03-02T05:00:07;99928.13;;;6.14;100.00
11440;BME280;5776;51.814;4.510;2024-03-02T05:02:34;99924.41;;;6.10;100.00
11440;BME280;5776;51.814;4.510;2024-03-02T05:05:00;99926.56;;;6.08;100.00
11440;BME280;5776;51.814;4.510;2024-03-02T05:07:26;99931.94;;;6.08;100.00
11440;BME280;5776;51.814;4.510;2024-03-02T05:09:52;99935.75;;;6.07;100.00
11440;BME280;5776;51.814;4.510;2024-03-02T05:12:18;99927.94;;;6.05;100.00
11440;BME280;5776;51.814;4.510;2024-03-02T05:15:03;99927.13;;;6.05;100.00
11440;BME280;5776;51.814;4.510;2024-03-02T05:17:29;99925.78;;;6.02;100.00
11440;BME280;5776;51.814;4.510;2024-03-02T05:19:55;99930.09;;;6.03;100.00
11440;BME280;5776;51.814;4.510;2024-03-02T05:22:21;99937.91;;;6.05;100.00
11440;BME280;5776;51.814;4.510;2024-03-02T05:24:48;99932.53;;;6.05;100.00
11440;BME280;5776;51.814;4.510;2024-03-02T05:27:14;99943.31;;;6.05;100.00
11440;BME280;5776;51.814;4.510;2024-03-02T05:29:40;99949.22;;;6.07;100.00
11440;BME280;5776;51.814;4.510;2024-03-02T05:32:06;99943.84;;;6.07;100.00
11440;BME280;5776;51.814;4.510;2024-03-02T05:34:32;99946.00;;;6.05;100.00
11440;BME280;5776;51.814;4.510;2024-03-02T05:37:01;99949.50;;;6.05;100.00
11440;BME280;5776;51.814;4.510;2024-03-02T05:39:27;99953.53;;;6.08;100.00
11440;BME280;5776;51.814;4.510;2024-03-02T05:41:53;99944.34;;;6.09;100.00
11440;BME280;5776;51.814;4.510;2024-03-02T05:44:19;99948.13;;;6.08;100.00
11440;BME280;5776;51.814;4.510;2024-03-02T05:46:45;99942.47;;;6.10;100.00
11440;BME280;5776;51.814;4.510;2024-03-02T05:49:11;99952.44;;;6.09;100.00
11440;BME280;5776;51.814;4.510;2024-03-02T05:51:37;99944.91;;;6.06;100.00
11440;BME280;5776;51.814;4.510;2024-03-02T05:54:03;99956.22;;;6.08;100.00
11440;BME280;5776;51.814;4.510;2024-03-02T05:56:31;99951.09;;;6.06;100.00
11440;BME280;5776;51.814;4.510;2024-03-02T05:58:56;99960.00;;;6.07;100.00
11440;BME280;5776;51.814;4.510;2024-03-02T06:01:43;99950.28;;;6.06;100.00
11440;BME280;5776;51.814;4.510;2024-03-02T06:04:10;99955.97;;;6.04;100.00
11440;BME280;5776;51.814;4.510;2024-03-02T06:06:42;99962.19;;;6.05;100.00
11440;BME280;5776;51.814;4.510;2024-03-02T06:09:08;99964.88;;;6.05;100.00
11440;BME280;5776;51.814;4.510;2024-03-02T06:11:38;99964.34;;;6.03;100.00
11440;BME280;5776;51.814;4.510;2024-03-02T06:14:05;99976.22;;;6.02;100.00
11440;BME280;5776;51.814;4.510;2024-03-02T06:16:33;99970.81;;;6.02;100.00
11440;BME280;5776;51.814;4.510;2024-03-02T06:19:00;99968.13;;;6.02;100.00
11440;BME280;5776;51.814;4.510;2024-03-02T06:21:27;99966.22;;;6.02;100.00
11440;BME280;5776;51.814;4.510;2024-03-02T06:23:53;99975.66;;;6.05;100.00
11440;BME280;5776;51.814;4.510;2024-03-02T06:26:19;99975.66;;;6.05;100.00
11440;BME280;5776;51.814;4.510;2024-03-02T06:28:45;99966.75;;;6.04;100.00
11440;BME280;5776;51.814;4.510;2024-03-02T06:31:11;99979.41;;;6.04;100.00
11440;BME280;5776;51.814;4.510;2024-03-02T06:33:37;99969.72;;;6.03;100.00
11440;BME280;5776;51.814;4.510;2024-03-02T06:36:04;99976.22;;;6.02;100.00
11440;BME280;5776;51.814;4.510;2024-03-02T06:38:30;99975.69;;;6.00;100.00
11440;BME280;5776;51.814;4.510;2024-03-02T06:41:16;99978.66;;;5.98;100.00
11440;BME280;5776;51.814;4.510;2024-03-02T06:43:42;99986.50;;;5.95;100.00
11440;BME280;5776;51.814;4.510;2024-03-02T06:46:08;99985.66;;;5.94;100.00
11440;BME280;5776;51.814;4.510;2024-03-02T06:48:34;99982.44;;;5.92;100.00
11440;BME280;5776;51.814;4.510;2024-03-02T06:51:00;99994.81;;;5.93;100.00
11440;BME280;5776;51.814;4.510;2024-03-02T06:53:27;99998.34;;;5.94;100.00
11440;BME280;5776;51.814;4.510;2024-03-02T06:55:54;99997.28;;;5.90;100.00
11440;BME280;5776;51.814;4.510;2024-03-02T06:58:19;100005.88;;;5.87;100.00
11440;BME280;5776;51.814;4.510;2024-03-02T07:00:45;100008.31;;;5.88;100.00
11440;BME280;5776;51.814;4.510;2024-03-02T07:03:11;100005.88;;;5.87;100.00
11440;BME280;5776;51.814;4.510;2024-03-02T07:05:38;100000.25;;;5.83;100.00
11440;BME280;5776;51.814;4.510;2024-03-02T07:08:04;100007.81;;;5.81;100.00
11440;BME280;5776;51.814;4.510;2024-03-02T07:10:31;100007.53;;;5.82;100.00
11440;BME280;5776;51.814;4.510;2024-03-02T07:12:57;100014.81;;;5.82;100.00
11440;BME280;5776;51.814;4.510;2024-03-02T07:15:23;100008.59;;;5.81;100.00
11440;BME280;5776;51.814;4.510;2024-03-02T07:18:04;100015.34;;;5.79;100.00
11440;BME280;5776;51.814;4.510;2024-03-02T07:20:30;100015.09;;;5.80;100.00
11440;BME280;5776;51.814;4.510;2024-03-02T07:22:56;100012.41;;;5.80;100.00
11440;BME280;5776;51.814;4.510;2024-03-02T07:25:22;100017.53;;;5.82;100.00
11440;BME280;5776;51.814;4.510;2024-03-02T07:27:47;100027.72;;;5.90;100.00
11440;BME280;5776;51.814;4.510;2024-03-02T07:30:14;100033.38;;;5.94;100.00
11440;BME280;5776;51.814;4.510;2024-03-02T07:32:42;100030.94;;;5.92;100.00
11440;BME280;5776;51.814;4.510;2024-03-02T07:35:12;100031.22;;;5.96;100.00
11440;BME280;5776;51.814;4.510;2024-03-02T07:37:39;100037.66;;;6.05;100.00
11440;BME280;5776;51.814;4.510;2024-03-02T07:40:08;100041.09;;;6.16;100.00
11440;BME280;5776;51.814;4.510;2024-03-02T07:42:40;100042.97;;;6.20;100.00
11440;BME280;5776;51.814;4.510;2024-03-02T07:45:06;100036.75;;;6.25;100.00
11440;BME280;5776;51.814;4.510;2024-03-02T07:47:36;100024.28;;;6.29;100.00
11440;BME280;5776;51.814;4.510;2024-03-02T07:50:02;100030.22;;;6.31;100.00
11440;BME280;5776;51.814;4.510;2024-03-02T07:52:28;100039.66;;;6.34;100.00
11440;BME280;5776;51.814;4.510;2024-03-02T07:54:54;100031.84;;;6.32;100.00
11440;BME280;5776;51.814;4.510;2024-03-02T07:57:21;100029.38;;;6.36;100.00
11440;BME280;5776;51.814;4.510;2024-03-02T07:59:47;100036.44;;;6.26;100.00
11440;BME280;5776;51.814;4.510;2024-03-02T08:02:12;100036.53;;;6.11;100.00
11440;BME280;5776;51.814;4.510;2024-03-02T08:04:39;100033.88;;;6.01;100.00
11440;BME280;5776;51.814;4.510;2024-03-02T08:07:06;100032.28;;;6.00;100.00
11440;BME280;5776;51.814;4.510;2024-03-02T08:09:33;100034.97;;;6.00;100.00
11440;BME280;5776;51.814;4.510;2024-03-02T08:11:59;100045.78;;;6.00;100.00
11440;BME280;5776;51.814;4.510;2024-03-02T08:14:25;100033.88;;;6.01;100.00
11440;BME280;5776;51.814;4.510;2024-03-02T08:16:51;100046.31;;;6.02;100.00
11440;BME280;5776;51.814;4.510;2024-03-02T08:19:17;100044.13;;;6.04;100.00
11440;BME280;5776;51.814;4.510;2024-03-02T08:21:43;100038.19;;;6.07;100.00
11440;BME280;5776;51.814;4.510;2024-03-02T08:24:09;100035.47;;;6.12;100.00
11440;BME280;5776;51.814;4.510;2024-03-02T08:26:35;100035.94;;;6.19;100.00
11440;BME280;5776;51.814;4.510;2024-03-02T08:29:01;100031.88;;;6.22;100.00
11440;BME280;5776;51.814;4.510;2024-03-02T08:31:29;100030.44;;;6.40;100.00
11440;BME280;5776;51.814;4.510;2024-03-02T08:33:55;100031.72;;;6.53;100.00
11440;BME280;5776;51.814;4.510;2024-03-02T08:36:23;100024.16;;;6.55;100.00
11440;BME280;5776;51.814;4.510;2024-03-02T08:38:50;100038.09;;;6.62;100.00
11440;BME280;5776;51.814;4.510;2024-03-02T08:41:15;100027.84;;;6.64;100.00
11440;BME280;5776;51.814;4.510;2024-03-02T08:43:42;100030.53;;;6.64;100.00
11440;BME280;5776;51.814;4.510;2024-03-02T08:46:08;100029.97;;;6.67;100.00
11440;BME280;5776;51.814;4.510;2024-03-02T08:48:34;100029.16;;;6.66;100.00
11440;BME280;5776;51.814;4.510;2024-03-02T08:51:00;100027.00;;;6.68;100.00
11440;BME280;5776;51.814;4.510;2024-03-02T08:53:25;100029.94;;;6.72;100.00
11440;BME280;5776;51.814;4.510;2024-03-02T08:55:52;100034.25;;;6.73;100.00
11440;BME280;5776;51.814;4.510;2024-03-02T08:58:18;100041.25;;;6.74;100.00
11440;BME280;5776;51.814;4.510;2024-03-02T09:00:47;100047.19;;;6.76;100.00
11440;BME280;5776;51.814;4.510;2024-03-02T09:03:12;100046.66;;;6.74;100.00
11440;BME280;5776;51.814;4.510;2024-03-02T09:05:38;100036.13;;;6.78;100.00
11440;BME280;5776;51.814;4.510;2024-03-02T09:08:05;100051.75;;;6.81;100.00
11440;BME280;5776;51.814;4.510;2024-03-02T09:10:31;100051.97;;;6.84;100.00
11440;BME280;5776;51.814;4.510;2024-03-02T09:12:57;100050.44;;;6.73;100.00
11440;BME280;5776;51.814;4.510;2024-03-02T09:15:23;100061.47;;;6.77;100.00
11440;BME280;5776;51.814;4.510;2024-03-02T09:17:48;100054.47;;;6.76;100.00
11440;BME280;5776;51.814;4.510;2024-03-02T09:20:14;100055.28;;;6.76;100.00
11440;BME280;5776;51.814;4.510;2024-03-02T09:22:40;100059.03;;;6.80;100.00
11440;BME280;5776;51.814;4.510;2024-03-02T09:25:07;100058.75;;;6.82;100.00
11440;BME280;5776;51.814;4.510;2024-03-02T09:27:38;100068.75;;;6.81;100.00
11440;BME280;5776;51.814;4.510;2024-03-02T09:30:09;100051.16;;;6.84;100.00
11440;BME280;5776;51.814;4.510;2024-03-02T09:32:37;100044.13;;;6.88;100.00
11440;BME280;5776;51.814;4.510;2024-03-02T09:35:03;100048.44;;;6.89;100.00
11440;BME280;5776;51.814;4.510;2024-03-02T09:37:29;100052.47;;;6.91;100.00
11440;BME280;5776;51.814;4.510;2024-03-02T09:39:55;100062.16;;;6.98;100.00
11440;BME280;5776;51.814;4.510;2024-03-02T09:42:21;100073.69;;;7.03;100.00
11440;BME280;5776;51.814;4.510;2024-03-02T09:44:48;100074.22;;;7.05;100.00
11440;BME280;5776;51.814;4.510;2024-03-02T09:47:14;100079.84;;;7.09;100.00
11440;BME280;5776;51.814;4.510;2024-03-02T09:49:40;100071.50;;;7.10;100.00
11440;BME280;5776;51.814;4.510;2024-03-02T09:52:07;100075.41;;;7.23;100.00
11440;BME280;5776;51.814;4.510;2024-03-02T09:54:33;100075.41;;;7.23;100.00
11440;BME280;5776;51.814;4.510;2024-03-02T09:56:59;100074.91;;;7.21;100.00
11440;BME280;5776;51.814;4.510;2024-03-02T09:59:27;100074.84;;;7.26;100.00
11440;BME280;5776;51.814;4.510;2024-03-02T10:01:59;100068.38;;;7.27;100.00
11440;BME280;5776;51.814;4.510;2024-03-02T10:04:26;100064.34;;;7.25;100.00
11440;BME280;5776;51.814;4.510;2024-03-02T10:07:09;100065.09;;;7.30;100.00
11440;BME280;5776;51.814;4.510;2024-03-02T10:09:36;100057.22;;;7.34;100.00
11440;BME280;5776;51.814;4.510;2024-03-02T10:12:07;100050.38;;;7.42;100.00
11440;BME280;5776;51.814;4.510;2024-03-02T10:14:33;100047.94;;;7.45;100.00
11440;BME280;5776;51.814;4.510;2024-03-02T10:17:09;100042.94;;;7.57;100.00
11440;BME280;5776;51.814;4.510;2024-03-02T10:19:36;100037.00;;;7.55;100.00
11440;BME280;5776;51.814;4.510;2024-03-02T10:22:09;100039.41;;;7.57;100.00
11440;BME280;5776;51.814;4.510;2024-03-02T10:24:37;100034.78;;;7.63;100.00
11440;BME280;5776;51.814;4.510;2024-03-02T10:27:15;100038.22;;;7.68;100.00
11440;BME280;5776;51.814;4.510;2024-03-02T10:29:41;100032.81;;;7.68;100.00
11440;BME280;5776;51.814;4.510;2024-03-02T10:32:11;100035.72;;;7.72;100.00
11440;BME280;5776;51.814;4.510;2024-03-02T10:34:37;100033.03;;;7.72;100.00
11440;BME280;5776;51.814;4.510;2024-03-02T10:37:07;100021.66;;;7.75;100.00
11440;BME280;5776;51.814;4.510;2024-03-02T10:39:34;100020.03;;;7.74;100.00
11440;BME280;5776;51.814;4.510;2024-03-02T10:42:06;100025.63;;;8.01;100.00
11440;BME280;5776;51.814;4.510;2024-03-02T10:44:33;100029.81;;;8.32;100.00
11440;BME280;5776;51.814;4.510;2024-03-02T10:47:04;100029.19;;;8.21;100.00
11440;BME280;5776;51.814;4.510;2024-03-02T10:49:33;100033.16;;;8.05;100.00
11440;BME280;5776;51.814;4.510;2024-03-02T10:51:59;100021.41;;;7.95;100.00
11440;BME280;5776;51.814;4.510;2024-03-02T10:54:25;100020.38;;;7.91;100.00
11440;BME280;5776;51.814;4.510;2024-03-02T10:57:04;100015.47;;;7.93;100.00
11440;BME280;5776;51.814;4.510;2024-03-02T10:59:35;100028.19;;;7.93;100.00
11440;BME280;5776;51.814;4.510;2024-03-02T11:02:03;100027.63;;;7.96;100.00
11440;BME280;5776;51.814;4.510;2024-03-02T11:04:30;100030.25;;;8.01;100.00
11440;BME280;5776;51.814;4.510;2024-03-02T11:07:00;100024.84;;;8.01;100.00
11440;BME280;5776;51.814;4.510;2024-03-02T11:09:28;100033.69;;;8.07;100.00
11440;BME280;5776;51.814;4.510;2024-03-02T11:12:02;100027.69;;;8.10;100.00
11440;BME280;5776;51.814;4.510;2024-03-02T11:14:30;100016.31;;;8.13;100.00
11440;BME280;5776;51.814;4.510;2024-03-02T11:16:58;100015.13;;;8.19;100.00
11440;BME280;5776;51.814;4.510;2024-03-02T11:19:24;100018.28;;;8.26;100.00
11440;BME280;5776;51.814;4.510;2024-03-02T11:21:51;100015.56;;;8.26;100.00
11440;BME280;5776;51.814;4.510;2024-03-02T11:26:52;100014.03;;;8.39;100.00
11440;BME280;5776;51.814;4.510;2024-03-02T11:32:03;100009.81;;;8.52;100.00
11440;BME280;5776;51.814;4.510;2024-03-02T11:34:30;100004.31;;;8.57;100.00
11440;BME280;5776;51.814;4.510;2024-03-02T11:36:58;100000.44;;;8.63;100.00
11440;BME280;5776;51.814;4.510;2024-03-02T11:39:27;99994.97;;;8.68;100.00
11440;BME280;5776;51.814;4.510;2024-03-02T11:41:55;99991.56;;;8.76;100.00
11440;BME280;5776;51.814;4.510;2024-03-02T11:44:21;99989.66;;;8.77;100.00
11440;BME280;5776;51.814;4.510;2024-03-02T11:46:52;99991.56;;;8.76;100.00
11440;BME280;5776;51.814;4.510;2024-03-02T11:49:38;99985.56;;;8.79;100.00
11440;BME280;5776;51.814;4.510;2024-03-02T11:52:05;99980.66;;;8.81;100.00
11440;BME280;5776;51.814;4.510;2024-03-02T11:54:33;99972.44;;;8.86;100.00
11440;BME280;5776;51.814;4.510;2024-03-02T11:57:03;99976.75;;;8.87;100.00
11440;BME280;5776;51.814;4.510;2024-03-02T11:59:29;99972.63;;;8.90;100.00
11440;BME280;5776;51.814;4.510;2024-03-02T12:01:56;99973.38;;;8.96;100.00
11440;BME280;5776;51.814;4.510;2024-03-02T12:04:23;99964.13;;;8.97;100.00
11440;BME280;5776;51.814;4.510;2024-03-02T12:06:56;99963.03;;;8.98;100.00
11440;BME280;5776;51.814;4.510;2024-03-02T12:09:26;99966.75;;;9.02;100.00
11440;BME280;5776;51.814;4.510;2024-03-02T12:12:06;99961.34;;;9.02;100.00
11440;BME280;5776;51.814;4.510;2024-03-02T12:14:34;99958.13;;;9.00;100.00
11440;BME280;5776;51.814;4.510;2024-03-02T12:17:01;99958.13;;;9.00;100.00
11440;BME280;5776;51.814;4.510;2024-03-02T12:19:27;99944.56;;;9.00;100.00
11440;BME280;5776;51.814;4.510;2024-03-02T12:22:01;99943.47;;;9.01;100.00
11440;BME280;5776;51.814;4.510;2024-03-02T12:24:29;99945.59;;;9.04;100.00
11440;BME280;5776;51.814;4.510;2024-03-02T12:26:55;99946.09;;;9.06;100.00
11440;BME280;5776;51.814;4.510;2024-03-02T12:29:22;99949.31;;;9.08;100.00
11440;BME280;5776;51.814;4.510;2024-03-02T12:31:51;99956.84;;;9.11;100.00
11440;BME280;5776;51.814;4.510;2024-03-02T12:34:18;99951.31;;;9.16;100.00
11440;BME280;5776;51.814;4.510;2024-03-02T12:36:48;99948.09;;;9.14;100.00
11440;BME280;5776;51.814;4.510;2024-03-02T12:39:16;99946.81;;;9.12;100.00
11440;BME280;5776;51.814;4.510;2024-03-02T12:41:42;99941.38;;;9.12;100.00
11440;BME280;5776;51.814;4.510;2024-03-02T12:44:09;99933.75;;;9.14;100.00
11440;BME280;5776;51.814;4.510;2024-03-02T12:46:35;99931.84;;;9.14;100.00
11440;BME280;5776;51.814;4.510;2024-03-02T12:49:08;99926.63;;;9.18;100.00
11440;BME280;5776;51.814;4.510;2024-03-02T12:51:41;99923.63;;;9.19;100.00
11440;BME280;5776;51.814;4.510;2024-03-02T12:54:09;99924.13;;;9.21;100.00
11440;BME280;5776;51.814;4.510;2024-03-02T12:56:37;99925.72;;;9.22;100.00
11440;BME280;5776;51.814;4.510;2024-03-02T12:59:04;99915.91;;;9.26;100.00
11440;BME280;5776;51.814;4.510;2024-03-02T13:01:30;99916.41;;;9.28;100.00
11440;BME280;5776;51.814;4.510;2024-03-02T13:03:58;99912.59;;;9.29;100.00
11440;BME280;5776;51.814;4.510;2024-03-02T13:06:25;99908.47;;;9.32;100.00
11440;BME280;5776;51.814;4.510;2024-03-02T13:08:55;99914.09;;;9.36;100.00
11440;BME280;5776;51.814;4.510;2024-03-02T13:11:22;99906.78;;;9.36;100.00
11440;BME280;5776;51.814;4.510;2024-03-02T13:13:49;99908.06;;;9.39;100.00
11440;BME280;5776;51.814;4.510;2024-03-02T13:16:16;99908.56;;;9.41;100.00
11440;BME280;5776;51.814;4.510;2024-03-02T13:18:44;99901.44;;;9.45;100.00
11440;BME280;5776;51.814;4.510;2024-03-02T13:21:09;99897.00;;;9.49;100.00